sensor_id;sensor_type;location;lat;lon;timestamp;pressure;altitude;pressure_sealevel;temperature;humidity
45467;BME280;31212;49.734;8.490;2023-04-21T00:01:39;100333.50;;;5.64;100.00
45467;BME280;31212;49.734;8.490;2023-04-21T00:04:05;100331.50;;;5.52;100.00
45467;BME280;31212;49.734;8.490;2023-04-21T00:06:33;100324.59;;;5.50;100.00
45467;BME280;31212;49.734;8.490;2023-04-21T00:09:00;100325.34;;;5.46;100.00
45467;BME280;31212;49.734;8.490;2023-04-21T00:11:29;100325.28;;;5.43;100.00
45467;BME280;31212;49.734;8.490;2023-04-21T00:13:56;100339.91;;;5.45;100.00
45467;BME280;31212;49.734;8.490;2023-04-21T00:16:23;100321.81;;;5.41;100.00
45467;BME280;31212;49.734;8.490;2023-04-21T00:18:50;100323.38;;;5.34;100.00
45467;BME280;31212;49.734;8.490;2023-04-21T00:21:16;100327.63;;;5.32;100.00
45467;BME280;31212;49.734;8.490;2023-04-21T00:23:43;100319.78;;;5.27;100.00
45467;BME280;31212;49.734;8.490;2023-04-21T00:26:11;100321.47;;;5.25;100.00
45467;BME280;31212;49.734;8.490;2023-04-21T00:28:41;100319.72;;;5.24;100.00
45467;BME280;31212;49.734;8.490;2023-04-21T00:31:07;100313.66;;;5.22;100.00
45467;BME280;31212;49.734;8.490;2023-04-21T00:33:35;100311.09;;;5.23;100.00
45467;BME280;31212;49.734;8.490;2023-04-21T00:36:02;100312.84;;;5.25;100.00
45467;BME280;31212;49.734;8.490;2023-04-21T00:38:28;100310.16;;;5.18;100.00
45467;BME280;31212;49.734;8.490;2023-04-21T00:40:55;100309.19;;;5.15;100.00
45467;BME280;31212;49.734;8.490;2023-04-21T00:43:21;100304.84;;;5.12;100.00
45467;BME280;31212;49.734;8.490;2023-04-21T00:45:52;100300.50;;;5.10;100.00
45467;BME280;31212;49.734;8.490;2023-04-21T00:48:19;100316.69;;;5.05;100.00
45467;BME280;31212;49.734;8.490;2023-04-21T00:50:47;100312.31;;;5.01;100.00
45467;BME280;31212;49.734;8.490;2023-04-21T00:53:14;100306.53;;;5.10;100.00
45467;BME280;31212;49.734;8.490;2023-04-21T00:55:40;100306.34;;;5.02;100.00
45467;BME280;31212;49.734;8.490;2023-04-21T00:58:07;100308.03;;;5.02;100.00
45467;BME280;31212;49.734;8.490;2023-04-21T01:00:34;100302.84;;;5.00;100.00
45467;BME280;31212;49.734;8.490;2023-04-21T01:03:03;100304.56;;;5.00;100.00
45467;BME280;31212;49.734;8.490;2023-04-21T01:05:30;100304.50;;;4.97;100.00
45467;BME280;31212;49.734;8.490;2023-04-21T01:08:00;100295.03;;;4.96;100.00
45467;BME280;31212;49.734;8.490;2023-04-21T01:10:26;100295.03;;;4.96;100.00
45467;BME280;31212;49.734;8.490;2023-04-21T01:12:53;100303.50;;;4.92;100.00
45467;BME280;31212;49.734;8.490;2023-04-21T01:15:19;100297.38;;;4.86;100.00
45467;BME280;31212;49.734;8.490;2023-04-21T01:17:46;100296.66;;;4.92;100.00
45467;BME280;31212;49.734;8.490;2023-04-21T01:20:14;100298.41;;;4.93;100.00
45467;BME280;31212;49.734;8.490;2023-04-21T01:22:42;100296.59;;;4.89;100.00
45467;BME280;31212;49.734;8.490;2023-04-21T01:25:10;100296.38;;;4.81;100.00
45467;BME280;31212;49.734;8.490;2023-04-21T01:27:36;100303.25;;;4.81;100.00
45467;BME280;31212;49.734;8.490;2023-04-21T01:30:04;100302.47;;;4.83;100.00
45467;BME280;31212;49.734;8.490;2023-04-21T01:32:31;100300.75;;;4.84;100.00
45467;BME280;31212;49.734;8.490;2023-04-21T01:34:58;100292.16;;;4.83;100.00
45467;BME280;31212;49.734;8.490;2023-04-21T01:37:28;100297.28;;;4.82;100.00
45467;BME280;31212;49.734;8.490;2023-04-21T01:39:59;100294.59;;;4.79;100.00
45467;BME280;31212;49.734;8.490;2023-04-21T01:42:28;100296.34;;;4.80;100.00
45467;BME280;31212;49.734;8.490;2023-04-21T01:44:56;100291.31;;;4.84;100.00
45467;BME280;31212;49.734;8.490;2023-04-21T01:47:23;100295.63;;;4.85;100.00
45467;BME280;31212;49.734;8.490;2023-04-21T01:49:50;100299.13;;;4.87;100.00
45467;BME280;31212;49.734;8.490;2023-04-21T01:52:17;100296.47;;;4.84;100.00
45467;BME280;31212;49.734;8.490;2023-04-21T01:54:44;100298.94;;;4.80;100.00
45467;BME280;31212;49.734;8.490;2023-04-21T01:57:14;100298.91;;;4.78;100.00
45467;BME280;31212;49.734;8.490;2023-04-21T01:59:41;100291.31;;;4.84;100.00
45467;BME280;31212;49.734;8.490;2023-04-21T02:02:07;100296.38;;;4.81;100.00
45467;BME280;31212;49.734;8.490;2023-04-21T02:04:34;100295.59;;;4.84;100.00
45467;BME280;31212;49.734;8.490;2023-04-21T02:07:01;100297.34;;;4.85;100.00
45467;BME280;31212;49.734;8.490;2023-04-21T02:09:27;100293.06;;;4.85;100.00
45467;BME280;31212;49.734;8.490;2023-04-21T02:11:55;100288.88;;;4.89;100.00
45467;BME280;31212;49.734;8.490;2023-04-21T02:14:23;100280.19;;;4.85;100.00
45467;BME280;31212;49.734;8.490;2023-04-21T02:16:50;100288.63;;;4.80;100.00
45467;BME280;31212;49.734;8.490;2023-04-21T02:19:16;100293.63;;;4.74;100.00
45467;BME280;31212;49.734;8.490;2023-04-21T02:21:43;100294.59;;;4.79;100.00
45467;BME280;31212;49.734;8.490;2023-04-21T02:24:09;100288.47;;;4.74;100.00
45467;BME280;31212;49.734;8.490;2023-04-21T02:26:36;100306.16;;;4.61;100.00
45467;BME280;31212;49.734;8.490;2023-04-21T02:29:02;100300.38;;;4.68;100.00
45467;BME280;31212;49.734;8.490;2023-04-21T02:31:30;100299.53;;;4.69;100.00
45467;BME280;31212;49.734;8.490;2023-04-21T02:33:56;100297.72;;;4.65;100.00
45467;BME280;31212;49.734;8.490;2023-04-21T02:36:24;100297.63;;;4.62;100.00
45467;BME280;31212;49.734;8.490;2023-04-21T02:38:50;100304.28;;;4.54;100.00
45467;BME280;31212;49.734;8.490;2023-04-21T02:41:17;100306.72;;;4.49;100.00
45467;BME280;31212;49.734;8.490;2023-04-21T02:43:43;100312.81;;;4.53;100.00
45467;BME280;31212;49.734;8.490;2023-04-21T02:46:09;100316.22;;;4.52;100.00
45467;BME280;31212;49.734;8.490;2023-04-21T02:48:37;100305.66;;;4.41;100.00
45467;BME280;31212;49.734;8.490;2023-04-21T02:51:04;100306.28;;;4.32;100.00
45467;BME280;31212;49.734;8.490;2023-04-21T02:53:31;100303.44;;;4.21;100.00
45467;BME280;31212;49.734;8.490;2023-04-21T02:55:57;100299.94;;;4.19;100.00
45467;BME280;31212;49.734;8.490;2023-04-21T02:58:28;100296.44;;;4.16;100.00
45467;BME280;31212;49.734;8.490;2023-04-21T03:00:55;100305.81;;;4.15;100.00
45467;BME280;31212;49.734;8.490;2023-04-21T03:03:21;100309.13;;;4.11;100.00
45467;BME280;31212;49.734;8.490;2023-04-21T03:05:55;100303.84;;;4.05;100.00
45467;BME280;31212;49.734;8.490;2023-04-21T03:08:21;100302.09;;;4.04;100.00
45467;BME280;31212;49.734;8.490;2023-04-21T03:10:48;100307.16;;;4.01;100.00
45467;BME280;31212;49.734;8.490;2023-04-21T03:13:14;100304.41;;;3.95;100.00
45467;BME280;31212;49.734;8.490;2023-04-21T03:15:41;100305.19;;;3.92;100.00
45467;BME280;31212;49.734;8.490;2023-04-21T03:18:08;100302.63;;;3.92;100.00
45467;BME280;31212;49.734;8.490;2023-04-21T03:20:34;100297.47;;;3.92;100.00
45467;BME280;31212;49.734;8.490;2023-04-21T03:23:02;100305.16;;;3.91;100.00
45467;BME280;31212;49.734;8.490;2023-04-21T03:25:29;100295.56;;;3.85;100.00
45467;BME280;31212;49.734;8.490;2023-04-21T03:27:56;100293.53;;;3.73;100.00
45467;BME280;31212;49.734;8.490;2023-04-21T03:30:22;100291.84;;;3.75;100.00
45467;BME280;31212;49.734;8.490;2023-04-21T03:32:50;100289.78;;;3.62;100.00
45467;BME280;31212;49.734;8.490;2023-04-21T03:35:18;100282.78;;;3.58;100.00
45467;BME280;31212;49.734;8.490;2023-04-21T03:37:45;100287.72;;;3.50;100.00
45467;BME280;31212;49.734;8.490;2023-04-21T03:40:12;100280.75;;;3.46;100.00
45467;BME280;31212;49.734;8.490;2023-04-21T03:42:39;100288.34;;;3.43;100.00
45467;BME280;31212;49.734;8.490;2023-04-21T03:45:07;100287.47;;;3.42;100.00
45467;BME280;31212;49.734;8.490;2023-04-21T03:47:35;100296.00;;;3.41;100.00
45467;BME280;31212;49.734;8.490;2023-04-21T03:50:02;100289.91;;;3.38;100.00
45467;BME280;31212;49.734;8.490;2023-04-21T03:52:29;100290.03;;;3.42;100.00
45467;BME280;31212;49.734;8.490;2023-04-21T03:54:55;100279.97;;;3.48;100.00
45467;BME280;31212;49.734;8.490;2023-04-21T03:57:23;100283.63;;;3.57;100.00
45467;BME280;31212;49.734;8.490;2023-04-21T03:59:50;100285.34;;;3.58;100.00
45467;BME280;31212;49.734;8.490;2023-04-21T04:02:16;100283.78;;;3.63;100.00
45467;BME280;31212;49.734;8.490;2023-04-21T04:04:43;100278.38;;;3.53;100.00
45467;BME280;31212;49.734;8.490;2023-04-21T04:07:10;100276.84;;;3.59;100.00
45467;BME280;31212;49.734;8.490;2023-04-21T04:09:36;100283.78;;;3.63;100.00
45467;BME280;31212;49.734;8.490;2023-04-21T04:12:03;100287.28;;;3.65;100.00
45467;BME280;31212;49.734;8.490;2023-04-21T04:14:31;100287.56;;;3.74;100.00
45467;BME280;31212;49.734;8.490;2023-04-21T04:16:57;100289.50;;;3.83;100.00
45467;BME280;31212;49.734;8.490;2023-04-21T04:19:29;100294.88;;;3.91;100.00
45467;BME280;31212;49.734;8.490;2023-04-21T04:21:57;100297.38;;;3.87;100.00
45467;BME280;31212;49.734;8.490;2023-04-21T04:24:23;100302.22;;;3.78;100.00
45467;BME280;31212;49.734;8.490;2023-04-21T04:26:51;100303.00;;;3.76;100.00
45467;BME280;31212;49.734;8.490;2023-04-21T04:29:19;100306.66;;;3.84;100.00
45467;BME280;31212;49.734;8.490;2023-04-21T04:31:48;100299.19;;;3.92;100.00
45467;BME280;31212;49.734;8.490;2023-04-21T04:34:14;100301.44;;;4.11;100.00
45467;BME280;31212;49.734;8.490;2023-04-21T04:36:40;100310.31;;;4.23;100.00
45467;BME280;31212;49.734;8.490;2023-04-21T04:39:07;100303.44;;;4.21;100.00
45467;BME280;31212;49.734;8.490;2023-04-21T04:41:34;100300.97;;;4.26;100.00
45467;BME280;31212;49.734;8.490;2023-04-21T04:44:02;100302.19;;;4.39;100.00
45467;BME280;31212;49.734;8.490;2023-04-21T04:46:29;100308.47;;;4.50;100.00
45467;BME280;31212;49.734;8.490;2023-04-21T04:48:57;100309.63;;;4.62;100.00
45467;BME280;31212;49.734;8.490;2023-04-21T04:51:24;100311.31;;;4.61;100.00
45467;BME280;31212;49.734;8.490;2023-04-21T04:53:50;100305.63;;;4.73;100.00
45467;BME280;31212;49.734;8.490;2023-04-21T04:56:17;100314.28;;;4.77;100.00
45467;BME280;31212;49.734;8.490;2023-04-21T04:58:43;100321.22;;;4.79;100.00
45467;BME280;31212;49.734;8.490;2023-04-21T05:01:11;100317.88;;;4.83;100.00
45467;BME280;31212;49.734;8.490;2023-04-21T05:03:38;100315.56;;;4.93;100.00
45467;BME280;31212;49.734;8.490;2023-04-21T05:06:06;100314.78;;;4.97;100.00
45467;BME280;31212;49.734;8.490;2023-04-21T05:08:33;100306.19;;;4.96;100.00
45467;BME280;31212;49.734;8.490;2023-04-21T05:11:00;100293.47;;;5.02;100.00
45467;BME280;31212;49.734;8.490;2023-04-21T05:13:27;100304.59;;;5.01;100.00
45467;BME280;31212;49.734;8.490;2023-04-21T05:15:56;100301.06;;;4.98;100.00
45467;BME280;31212;49.734;8.490;2023-04-21T05:18:22;100308.03;;;5.02;100.00
45467;BME280;31212;49.734;8.490;2023-04-21T05:20:49;100311.47;;;5.01;100.00
45467;BME280;31212;49.734;8.490;2023-04-21T05:23:17;100321.13;;;5.11;100.00
45467;BME280;31212;49.734;8.490;2023-04-21T05:25:44;100334.19;;;5.19;100.00
45467;BME280;31212;49.734;8.490;2023-04-21T05:28:10;100329.25;;;5.28;100.00
45467;BME280;31212;49.734;8.490;2023-04-21T05:30:37;100328.66;;;5.40;100.00
45467;BME280;31212;49.734;8.490;2023-04-21T05:33:03;100332.25;;;5.47;100.00
45467;BME280;31212;49.734;8.490;2023-04-21T05:35:30;100318.63;;;5.52;100.00
45467;BME280;31212;49.734;8.490;2023-04-21T05:37:56;100322.19;;;5.58;100.00
45467;BME280;31212;49.734;8.490;2023-04-21T05:40:24;100325.09;;;5.73;100.00
45467;BME280;31212;49.734;8.490;2023-04-21T05:42:51;100333.03;;;5.84;100.00
45467;BME280;31212;49.734;8.490;2023-04-21T05:45:17;100319.22;;;5.80;100.00
45467;BME280;31212;49.734;8.490;2023-04-21T05:47:44;100327.28;;;5.96;100.00
45467;BME280;31212;49.734;8.490;2023-04-21T05:50:10;100320.66;;;6.07;100.00
45467;BME280;31212;49.734;8.490;2023-04-21T05:52:37;100322.66;;;6.22;100.00
45467;BME280;31212;49.734;8.490;2023-04-21T05:55:04;100314.31;;;6.34;100.00
45467;BME280;31212;49.734;8.490;2023-04-21T05:57:32;100310.88;;;6.35;100.00
45467;BME280;31212;49.734;8.490;2023-04-21T05:59:58;100299.78;;;6.39;100.00
45467;BME280;31212;49.734;8.490;2023-04-21T06:02:25;100296.22;;;6.31;100.00
45467;BME280;31212;49.734;8.490;2023-04-21T06:04:51;100303.94;;;6.31;100.00
45467;BME280;31212;49.734;8.490;2023-04-21T06:07:18;100311.09;;;6.46;100.00
45467;BME280;31212;49.734;8.490;2023-04-21T06:09:48;100310.44;;;6.56;100.00
45467;BME280;31212;49.734;8.490;2023-04-21T06:12:15;100308.88;;;6.66;100.00
45467;BME280;31212;49.734;8.490;2023-04-21T06:14:43;100306.50;;;6.78;100.00
45467;BME280;31212;49.734;8.490;2023-04-21T06:17:09;100314.22;;;6.77;100.00
45467;BME280;31212;49.734;8.490;2023-04-21T06:19:36;100317.66;;;6.77;100.00
45467;BME280;31212;49.734;8.490;2023-04-21T06:22:03;100323.09;;;6.93;100.00
45467;BME280;31212;49.734;8.490;2023-04-21T06:24:31;100317.81;;;6.86;100.00
45467;BME280;31212;49.734;8.490;2023-04-21T06:26:57;100323.75;;;6.82;100.00
45467;BME280;31212;49.734;8.490;2023-04-21T06:29:24;100323.81;;;6.85;100.00
45467;BME280;31212;49.734;8.490;2023-04-21T06:31:51;100318.78;;;6.93;100.00
45467;BME280;31212;49.734;8.490;2023-04-21T06:34:18;100319.72;;;6.97;100.00
45467;BME280;31212;49.734;8.490;2023-04-21T06:36:45;100326.78;;;7.09;100.00
45467;BME280;31212;49.734;8.490;2023-04-21T06:39:11;100325.94;;;7.11;100.00
45467;BME280;31212;49.734;8.490;2023-04-21T06:41:38;100327.06;;;7.27;99.94
45467;BME280;31212;49.734;8.490;2023-04-21T06:44:05;100329.16;;;7.53;99.54
45467;BME280;31212;49.734;8.490;2023-04-21T06:46:31;100315.56;;;7.66;99.05
45467;BME280;31212;49.734;8.490;2023-04-21T06:48:59;100308.59;;;7.61;98.06
45467;BME280;31212;49.734;8.490;2023-04-21T06:51:25;100304.38;;;7.66;97.34
45467;BME280;31212;49.734;8.490;2023-04-21T06:53:52;100300.00;;;7.62;96.25
45467;BME280;31212;49.734;8.490;2023-04-21T06:56:18;100308.91;;;7.84;96.32
45467;BME280;31212;49.734;8.490;2023-04-21T06:58:45;100285.50;;;7.73;94.96
45467;BME280;31212;49.734;8.490;2023-04-21T07:01:12;100277.75;;;7.74;95.09
45467;BME280;31212;49.734;8.490;2023-04-21T07:03:38;100273.50;;;7.78;94.89
45467;BME280;31212;49.734;8.490;2023-04-21T07:06:06;100260.63;;;7.81;93.74
45467;BME280;31212;49.734;8.490;2023-04-21T07:08:33;100265.88;;;7.87;93.68
45467;BME280;31212;49.734;8.490;2023-04-21T07:10:59;100259.88;;;7.91;92.96
45467;BME280;31212;49.734;8.490;2023-04-21T07:13:26;100264.25;;;7.97;93.32
45467;BME280;31212;49.734;8.490;2023-04-21T07:15:52;100264.28;;;8.00;92.55
45467;BME280;31212;49.734;8.490;2023-04-21T07:18:19;100261.03;;;8.15;91.95
45467;BME280;31212;49.734;8.490;2023-04-21T07:20:45;100253.34;;;8.24;91.34
45467;BME280;31212;49.734;8.490;2023-04-21T07:23:13;100231.88;;;8.35;90.61
45467;BME280;31212;49.734;8.490;2023-04-21T07:25:40;100214.69;;;8.40;89.40
45467;BME280;31212;49.734;8.490;2023-04-21T07:28:06;100211.16;;;8.30;89.24
45467;BME280;31212;49.734;8.490;2023-04-21T07:30:33;100213.69;;;8.27;89.06
45467;BME280;31212;49.734;8.490;2023-04-21T07:32:59;100216.19;;;8.18;89.25
45467;BME280;31212;49.734;8.490;2023-04-21T07:35:26;100243.84;;;8.22;89.99
45467;BME280;31212;49.734;8.490;2023-04-21T07:37:52;100239.63;;;8.30;89.80
45467;BME280;31212;49.734;8.490;2023-04-21T07:40:20;100232.59;;;8.18;89.28
45467;BME280;31212;49.734;8.490;2023-04-21T07:42:46;100232.72;;;8.31;90.14
45467;BME280;31212;49.734;8.490;2023-04-21T07:45:13;100212.94;;;8.34;89.54
45467;BME280;31212;49.734;8.490;2023-04-21T07:47:39;100218.25;;;8.48;89.54
45467;BME280;31212;49.734;8.490;2023-04-21T07:50:07;100213.09;;;8.53;88.92
45467;BME280;31212;49.734;8.490;2023-04-21T07:52:34;100207.59;;;8.19;89.32
45467;BME280;31212;49.734;8.490;2023-04-21T07:55:00;100215.78;;;8.64;88.45
45467;BME280;31212;49.734;8.490;2023-04-21T07:57:28;100191.78;;;8.83;87.50
45467;BME280;31212;49.734;8.490;2023-04-21T07:59:56;100187.56;;;8.96;86.82
45467;BME280;31212;49.734;8.490;2023-04-21T08:02:22;100184.91;;;8.91;86.36
45467;BME280;31212;49.734;8.490;2023-04-21T08:04:48;100178.75;;;8.69;86.65
45467;BME280;31212;49.734;8.490;2023-04-21T08:07:15;100189.72;;;8.44;87.02
45467;BME280;31212;49.734;8.490;2023-04-21T08:09:42;100206.03;;;8.35;87.97
45467;BME280;31212;49.734;8.490;2023-04-21T08:12:08;100222.75;;;8.69;88.10
45467;BME280;31212;49.734;8.490;2023-04-21T08:14:36;100239.59;;;9.44;87.78
45467;BME280;31212;49.734;8.490;2023-04-21T08:17:02;100171.50;;;9.74;85.22
45467;BME280;31212;49.734;8.490;2023-04-21T08:19:29;100117.91;;;9.80;83.91
45467;BME280;31212;49.734;8.490;2023-04-21T08:21:55;100113.63;;;9.89;83.53
45467;BME280;31212;49.734;8.490;2023-04-21T08:24:22;100110.16;;;10.04;82.73
45467;BME280;31212;49.734;8.490;2023-04-21T08:26:49;100106.69;;;9.96;82.77
45467;BME280;31212;49.734;8.490;2023-04-21T08:29:16;100091.09;;;10.73;81.51
45467;BME280;31212;49.734;8.490;2023-04-21T08:31:44;99987.75;;;11.36;78.36
45467;BME280;31212;49.734;8.490;2023-04-21T08:34:10;99943.06;;;11.98;77.05
45467;BME280;31212;49.734;8.490;2023-04-21T08:36:37;99895.28;;;12.05;75.66
45467;BME280;31212;49.734;8.490;2023-04-21T08:39:03;99841.09;;;12.38;74.06
45467;BME280;31212;49.734;8.490;2023-04-21T08:41:30;99797.25;;;12.69;72.49
45467;BME280;31212;49.734;8.490;2023-04-21T08:43:57;99820.81;;;12.60;72.97
45467;BME280;31212;49.734;8.490;2023-04-21T08:46:23;99885.63;;;13.39;73.08
45467;BME280;31212;49.734;8.490;2023-04-21T08:48:51;99711.63;;;14.67;68.78
45467;BME280;31212;49.734;8.490;2023-04-21T08:51:21;99572.63;;;14.87;65.47
45467;BME280;31212;49.734;8.490;2023-04-21T08:53:48;99552.53;;;14.56;64.64
45467;BME280;31212;49.734;8.490;2023-04-21T08:56:14;99567.59;;;15.10;63.93
45467;BME280;31212;49.734;8.490;2023-04-21T08:58:41;99469.75;;;16.74;60.97
45467;BME280;31212;49.734;8.490;2023-04-21T09:01:07;99367.59;;;17.80;57.10
45467;BME280;31212;49.734;8.490;2023-04-21T09:03:34;99285.47;;;17.37;55.67
45467;BME280;31212;49.734;8.490;2023-04-21T09:06:03;99380.13;;;18.14;55.74
45467;BME280;31212;49.734;8.490;2023-04-21T09:08:31;99292.50;;;18.54;53.70
45467;BME280;31212;49.734;8.490;2023-04-21T09:10:58;99276.28;;;18.26;53.54
45467;BME280;31212;49.734;8.490;2023-04-21T09:13:29;99280.41;;;18.86;52.81
45467;BME280;31212;49.734;8.490;2023-04-21T09:15:56;99307.41;;;19.44;52.37
45467;BME280;31212;49.734;8.490;2023-04-21T09:18:24;99122.38;;;19.42;49.65
45467;BME280;31212;49.734;8.490;2023-04-21T09:21:06;99211.63;;;19.96;49.97
45467;BME280;31212;49.734;8.490;2023-04-21T09:23:39;99234.13;;;19.01;50.96
45467;BME280;31212;49.734;8.490;2023-04-21T09:26:06;99292.03;;;18.26;52.19
45467;BME280;31212;49.734;8.490;2023-04-21T09:28:32;99399.97;;;18.98;52.94
45467;BME280;31212;49.734;8.490;2023-04-21T09:30:59;99311.22;;;19.72;51.20
45467;BME280;31212;49.734;8.490;2023-04-21T09:33:25;99290.19;;;20.37;49.95
45467;BME280;31212;49.734;8.490;2023-04-21T09:35:52;99080.47;;;20.78;46.48
45467;BME280;31212;49.734;8.490;2023-04-21T09:38:21;99202.38;;;21.71;47.05
45467;BME280;31212;49.734;8.490;2023-04-21T09:40:55;99006.13;;;22.09;43.62
45467;BME280;31212;49.734;8.490;2023-04-21T09:43:22;99090.53;;;21.85;45.14
45467;BME280;31212;49.734;8.490;2023-04-21T09:45:49;98987.53;;;21.16;44.21
45467;BME280;31212;49.734;8.490;2023-04-21T09:48:16;99038.19;;;22.05;44.21
45467;BME280;31212;49.734;8.490;2023-04-21T09:50:45;99100.56;;;22.34;44.61
45467;BME280;31212;49.734;8.490;2023-04-21T09:53:14;99138.47;;;22.33;44.88
45467;BME280;31212;49.734;8.490;2023-04-21T09:55:45;99152.28;;;21.55;45.71
45467;BME280;31212;49.734;8.490;2023-04-21T09:58:15;99063.66;;;22.97;43.08
45467;BME280;31212;49.734;8.490;2023-04-21T10:00:44;99065.34;;;22.98;43.10
45467;BME280;31212;49.734;8.490;2023-04-21T10:03:11;99022.06;;;24.45;41.05
45467;BME280;31212;49.734;8.490;2023-04-21T10:05:38;99008.25;;;23.81;40.78
45467;BME280;31212;49.734;8.490;2023-04-21T10:08:05;98986.41;;;23.78;40.94
45467;BME280;31212;49.734;8.490;2023-04-21T10:10:32;98976.00;;;23.63;40.36
45467;BME280;31212;49.734;8.490;2023-04-21T10:13:01;98957.03;;;23.08;40.69
45467;BME280;31212;49.734;8.490;2023-04-21T10:15:29;98924.19;;;20.31;43.36
45467;BME280;31212;49.734;8.490;2023-04-21T10:18:10;99230.59;;;22.81;44.68
45467;BME280;31212;49.734;8.490;2023-04-21T10:20:50;99215.84;;;21.23;46.50
45467;BME280;31212;49.734;8.490;2023-04-21T10:23:25;99292.75;;;21.76;46.66
45467;BME280;31212;49.734;8.490;2023-04-21T10:25:52;99148.22;;;22.06;44.20
45467;BME280;31212;49.734;8.490;2023-04-21T10:28:20;99100.53;;;23.63;41.90
45467;BME280;31212;49.734;8.490;2023-04-21T10:31:16;98863.63;;;21.00;41.88
45467;BME280;31212;49.734;8.490;2023-04-21T10:36:46;99080.94;;;24.61;40.64
45467;BME280;31212;49.734;8.490;2023-04-21T10:39:24;99064.19;;;25.63;39.65
45467;BME280;31212;49.734;8.490;2023-04-21T10:41:54;98984.09;;;25.67;38.73
45467;BME280;31212;49.734;8.490;2023-04-21T10:44:23;99026.56;;;24.09;41.07
45467;BME280;31212;49.734;8.490;2023-04-21T10:46:51;99097.22;;;22.58;43.49
45467;BME280;31212;49.734;8.490;2023-04-21T10:49:21;99086.19;;;24.03;41.72
45467;BME280;31212;49.734;8.490;2023-04-21T10:52:06;99008.38;;;23.18;41.51
45467;BME280;31212;49.734;8.490;2023-04-21T10:54:40;99061.44;;;22.40;42.96
45467;BME280;31212;49.734;8.490;2023-04-21T10:57:08;99062.78;;;22.05;43.57
45467;BME280;31212;49.734;8.490;2023-04-21T10:59:37;99195.03;;;19.78;47.74
45467;BME280;31212;49.734;8.490;2023-04-21T11:02:04;99158.44;;;21.56;45.08
45467;BME280;31212;49.734;8.490;2023-04-21T11:04:32;99237.44;;;22.44;45.11
45467;BME280;31212;49.734;8.490;2023-04-21T11:07:05;99146.06;;;21.71;44.79
45467;BME280;31212;49.734;8.490;2023-04-21T11:09:33;99230.97;;;22.62;45.14
45467;BME280;31212;49.734;8.490;2023-04-21T11:12:00;99117.97;;;22.77;43.36
45467;BME280;31212;49.734;8.490;2023-04-21T11:14:29;99014.53;;;24.74;39.82
45467;BME280;31212;49.734;8.490;2023-04-21T11:16:57;98965.94;;;23.20;40.88
45467;BME280;31212;49.734;8.490;2023-04-21T11:19:24;99053.94;;;22.06;43.61
45467;BME280;31212;49.734;8.490;2023-04-21T11:21:51;99170.25;;;19.82;47.67
45467;BME280;31212;49.734;8.490;2023-04-21T11:24:19;99308.88;;;20.48;48.86
45467;BME280;31212;49.734;8.490;2023-04-21T11:26:45;99243.59;;;18.69;50.05
45467;BME280;31212;49.734;8.490;2023-04-21T11:29:12;99369.34;;;18.21;52.34
45467;BME280;31212;49.734;8.490;2023-04-21T11:31:40;99420.53;;;18.31;53.00
45467;BME280;31212;49.734;8.490;2023-04-21T11:34:10;99418.19;;;17.83;53.42
45467;BME280;31212;49.734;8.490;2023-04-21T11:36:39;99485.19;;;18.75;53.50
45467;BME280;31212;49.734;8.490;2023-04-21T11:39:06;99452.91;;;19.09;52.48
45467;BME280;31212;49.734;8.490;2023-04-21T11:41:35;99405.94;;;18.82;52.03
45467;BME280;31212;49.734;8.490;2023-04-21T11:44:01;99353.03;;;17.93;52.41
45467;BME280;31212;49.734;8.490;2023-04-21T11:46:28;99494.81;;;18.74;53.79
45467;BME280;31212;49.734;8.490;2023-04-21T11:48:59;99349.75;;;18.47;51.80
45467;BME280;31212;49.734;8.490;2023-04-21T11:51:31;99356.72;;;18.48;51.58
45467;BME280;31212;49.734;8.490;2023-04-21T11:53:58;99346.94;;;19.07;50.73
45467;BME280;31212;49.734;8.490;2023-04-21T11:56:24;99439.69;;;19.84;51.65
45467;BME280;31212;49.734;8.490;2023-04-21T11:58:51;99356.38;;;19.99;50.28
45467;BME280;31212;49.734;8.490;2023-04-21T12:01:19;99275.28;;;18.65;50.39
45467;BME280;31212;49.734;8.490;2023-04-21T12:03:53;99386.84;;;18.79;51.98
45467;BME280;31212;49.734;8.490;2023-04-21T12:06:24;99431.78;;;19.47;51.81
45467;BME280;31212;49.734;8.490;2023-04-21T12:08:57;99345.34;;;18.66;51.53
45467;BME280;31212;49.734;8.490;2023-04-21T12:11:26;99341.56;;;18.34;51.66
45467;BME280;31212;49.734;8.490;2023-04-21T12:13:55;99365.78;;;18.41;52.14
45467;BME280;31212;49.734;8.490;2023-04-21T12:16:23;99376.94;;;18.27;52.43
45467;BME280;31212;49.734;8.490;2023-04-21T12:18:51;99384.16;;;19.17;51.73
45467;BME280;31212;49.734;8.490;2023-04-21T12:21:18;99283.41;;;19.15;50.07
45467;BME280;31212;49.734;8.490;2023-04-21T12:23:44;99326.38;;;19.33;50.35
45467;BME280;31212;49.734;8.490;2023-04-21T12:26:12;99279.94;;;18.41;50.84
45467;BME280;31212;49.734;8.490;2023-04-21T12:28:38;99356.78;;;18.46;51.97
45467;BME280;31212;49.734;8.490;2023-04-21T12:31:05;99311.25;;;19.19;50.31
45467;BME280;31212;49.734;8.490;2023-04-21T12:33:32;99343.69;;;19.72;50.26
45467;BME280;31212;49.734;8.490;2023-04-21T12:35:58;99244.09;;;20.28;48.02
45467;BME280;31212;49.734;8.490;2023-04-21T12:38:25;99285.00;;;19.53;49.78
45467;BME280;31212;49.734;8.490;2023-04-21T12:40:51;99257.88;;;20.02;48.80
45467;BME280;31212;49.734;8.490;2023-04-21T12:43:19;99288.56;;;20.34;48.93
45467;BME280;31212;49.734;8.490;2023-04-21T12:45:46;99223.91;;;21.20;47.30
45467;BME280;31212;49.734;8.490;2023-04-21T12:48:12;99230.59;;;21.11;47.53
45467;BME280;31212;49.734;8.490;2023-04-21T12:50:39;99202.00;;;20.89;47.37
45467;BME280;31212;49.734;8.490;2023-04-21T12:53:06;99280.06;;;20.13;49.70
45467;BME280;31212;49.734;8.490;2023-04-21T12:55:33;99305.22;;;18.99;51.25
45467;BME280;31212;49.734;8.490;2023-04-21T12:58:00;99287.47;;;18.49;51.51
45467;BME280;31212;49.734;8.490;2023-04-21T13:00:28;99335.59;;;18.69;52.31